createdAt,value
2023-05-12T00:02:01.244Z,8.32
2023-05-12T00:04:28.194Z,9.27
2023-05-12T00:06:55.027Z,5.43
2023-05-12T00:09:21.828Z,7.97
2023-05-12T00:11:49.532Z,6.15
2023-05-12T00:14:19.287Z,6.78
2023-05-12T00:20:04.825Z,6.13
2023-05-12T00:22:31.843Z,5.78
2023-05-12T00:25:18.599Z,6.95
2023-05-12T00:27:45.848Z,6.95
2023-05-12T00:30:13.331Z,6.07
2023-05-12T00:32:42.351Z,6.85
2023-05-12T00:35:10.369Z,7.95
2023-05-12T00:37:37.986Z,10.85
2023-05-12T00:40:05.740Z,9.60
2023-05-12T00:42:34.223Z,7.75
2023-05-12T00:45:01.701Z,8.48
2023-05-12T00:47:30.925Z,9.97
2023-05-12T00:49:57.948Z,7.15
2023-05-12T00:52:25.061Z,5.97
2023-05-12T00:54:51.990Z,7.72
2023-05-12T00:57:19.311Z,8.45
2023-05-12T00:59:46.677Z,12.85
2023-05-12T01:02:14.020Z,8.98
2023-05-12T01:04:41.632Z,7.93
2023-05-12T01:07:17.698Z,8.20
2023-05-12T01:09:45.583Z,11.00
2023-05-12T01:12:12.399Z,8.85
2023-05-12T01:14:39.760Z,11.63
2023-05-12T01:17:10.276Z,8.77
2023-05-12T01:19:49.302Z,9.57
2023-05-12T01:22:17.562Z,17.48
2023-05-12T01:24:52.553Z,8.10
2023-05-12T01:27:20.720Z,8.07
2023-05-12T01:29:48.533Z,9.25
2023-05-12T01:32:18.085Z,8.52
2023-05-12T01:34:45.208Z,10.50
2023-05-12T01:37:12.759Z,8.93
2023-05-12T01:39:40.488Z,10.40
2023-05-12T01:42:09.609Z,10.05
2023-05-12T01:44:36.594Z,7.32
2023-05-12T01:47:04.157Z,8.93
2023-05-12T01:49:33.174Z,10.40
2023-05-12T01:52:00.160Z,9.38
2023-05-12T01:54:30.893Z,10.50
2023-05-12T01:56:58.082Z,9.05
2023-05-12T01:59:25.485Z,8.65
2023-05-12T02:02:00.282Z,7.22
2023-05-12T02:04:33.079Z,7.45
2023-05-12T02:07:01.876Z,7.63
2023-05-12T02:09:33.498Z,7.20
2023-05-12T02:12:02.374Z,7.40
2023-05-12T02:14:31.698Z,7.40
2023-05-12T02:16:59.381Z,7.40
2023-05-12T02:19:26.361Z,10.68
2023-05-12T02:21:55.061Z,9.85
2023-05-12T02:24:21.858Z,8.95
2023-05-12T02:26:49.267Z,10.63
2023-05-12T02:29:19.697Z,6.93
2023-05-12T02:31:53.168Z,11.35
2023-05-12T02:34:20.311Z,8.40
2023-05-12T02:36:47.482Z,8.98
2023-05-12T02:39:14.625Z,8.13
2023-05-12T02:41:45.190Z,12.20
2023-05-12T02:44:12.312Z,7.97
2023-05-12T02:46:39.700Z,10.73
2023-05-12T02:49:08.791Z,10.45
2023-05-12T02:51:35.632Z,9.40
2023-05-12T02:54:02.480Z,11.93
2023-05-12T02:56:30.438Z,13.48
2023-05-12T02:58:58.341Z,11.50
2023-05-12T03:01:35.009Z,11.90
2023-05-12T03:04:02.073Z,12.18
2023-05-12T03:06:29.768Z,11.25
2023-05-12T03:08:56.609Z,10.50
2023-05-12T03:11:23.815Z,14.27
2023-05-12T03:13:54.589Z,10.60
2023-05-12T03:16:21.493Z,11.25
2023-05-12T03:18:49.205Z,11.95
2023-05-12T03:21:16.594Z,10.32
2023-05-12T03:23:43.393Z,8.52
2023-05-12T03:26:11.466Z,9.48
2023-05-12T03:28:38.711Z,10.25
2023-05-12T03:31:06.101Z,8.60
2023-05-12T03:33:34.892Z,10.27
2023-05-12T03:36:02.227Z,9.65
2023-05-12T03:38:29.088Z,9.13
2023-05-12T03:41:07.418Z,8.95
2023-05-12T03:43:36.067Z,8.73
2023-05-12T03:46:03.977Z,8.00
2023-05-12T03:48:31.229Z,9.65
2023-05-12T03:50:58.913Z,9.20
2023-05-12T03:53:25.848Z,8.40
2023-05-12T03:55:52.736Z,11.52
2023-05-12T03:58:19.666Z,10.05
2023-05-12T04:00:49.737Z,7.50
2023-05-12T04:03:17.102Z,10.35
2023-05-12T04:05:44.188Z,9.05
2023-05-12T04:08:11.238Z,9.90
2023-05-12T04:10:38.634Z,9.35
2023-05-12T04:13:05.479Z,13.27
2023-05-12T04:15:32.401Z,13.57
2023-05-12T04:17:59.405Z,11.60
2023-05-12T04:20:26.394Z,9.13
2023-05-12T04:22:53.410Z,12.35
2023-05-12T04:25:20.382Z,15.52
2023-05-12T04:27:47.701Z,17.58
2023-05-12T04:30:14.614Z,14.32
2023-05-12T04:32:43.295Z,20.38
2023-05-12T04:35:10.350Z,19.52
2023-05-12T04:37:37.422Z,22.50
2023-05-12T04:40:05.632Z,19.75
2023-05-12T04:42:32.535Z,22.33
2023-05-12T04:44:59.908Z,20.60
2023-05-12T04:47:27.184Z,22.75
2023-05-12T04:49:54.199Z,24.27
2023-05-12T04:52:24.010Z,28.35
2023-05-12T04:54:53.461Z,23.05
2023-05-12T04:57:20.554Z,27.75
2023-05-12T04:59:48.476Z,27.90
2023-05-12T05:02:16.317Z,27.27
2023-05-12T05:04:43.373Z,26.90
2023-05-12T05:07:10.432Z,26.92
2023-05-12T05:09:37.291Z,33.65
2023-05-12T05:12:05.585Z,34.97
2023-05-12T05:14:33.530Z,35.50
2023-05-12T05:17:00.580Z,27.75
2023-05-12T05:19:39.008Z,33.92
2023-05-12T05:22:14.513Z,34.10
2023-05-12T05:24:41.855Z,29.70
2023-05-12T05:27:09.062Z,34.85
2023-05-12T05:29:36.070Z,37.95
2023-05-12T05:32:03.087Z,32.30
2023-05-12T05:34:30.467Z,37.15
2023-05-12T05:36:57.716Z,33.92
2023-05-12T05:39:36.614Z,36.40
2023-05-12T05:42:03.627Z,44.10
2023-05-12T05:44:33.222Z,32.13
2023-05-12T05:47:03.281Z,35.55
2023-05-12T05:49:30.744Z,37.67
2023-05-12T05:51:59.723Z,35.38
2023-05-12T05:54:31.123Z,41.45
2023-05-12T05:57:02.142Z,38.17
2023-05-12T05:59:30.544Z,35.70
2023-05-12T06:01:58.926Z,35.55
2023-05-12T06:04:25.964Z,40.42
2023-05-12T06:06:53.273Z,35.42
2023-05-12T06:09:21.561Z,34.75
2023-05-12T06:11:52.611Z,37.70
2023-05-12T06:14:19.388Z,41.58
2023-05-12T06:16:54.838Z,46.45
2023-05-12T06:19:24.588Z,34.30
2023-05-12T06:21:52.903Z,43.58
2023-05-12T06:24:19.893Z,40.80
2023-05-12T06:26:46.895Z,41.10
2023-05-12T06:29:16.406Z,43.58
2023-05-12T06:32:14.914Z,39.53
2023-05-12T06:34:43.148Z,40.72
2023-05-12T06:37:10.293Z,37.33
2023-05-12T06:39:41.504Z,42.13
2023-05-12T06:42:08.554Z,42.25
2023-05-12T06:44:42.279Z,42.88
2023-05-12T06:47:19.516Z,43.60
2023-05-12T06:49:47.238Z,38.83
2023-05-12T06:52:17.338Z,40.13
2023-05-12T06:54:44.137Z,43.15
2023-05-12T06:57:10.906Z,41.08
2023-05-12T06:59:37.908Z,41.95
2023-05-12T07:02:04.773Z,43.28
2023-05-12T07:04:31.664Z,39.85
2023-05-12T07:06:58.628Z,39.03
2023-05-12T07:09:25.572Z,38.72
2023-05-12T07:11:53.124Z,39.67
2023-05-12T07:14:21.763Z,44.13
2023-05-12T07:16:52.564Z,39.17
2023-05-12T07:19:19.752Z,36.35
2023-05-12T07:21:46.638Z,38.58
2023-05-12T07:24:21.205Z,35.88
2023-05-12T07:26:48.406Z,35.45
2023-05-12T07:29:15.175Z,45.15
2023-05-12T07:31:50.691Z,33.03
2023-05-12T07:34:17.867Z,34.47
2023-05-12T07:36:44.917Z,35.90
2023-05-12T07:39:13.782Z,38.83
2023-05-12T07:41:44.006Z,33.38
2023-05-12T07:44:10.894Z,30.23
2023-05-12T07:46:37.745Z,32.83
2023-05-12T07:49:04.765Z,32.25
2023-05-12T07:51:31.572Z,31.13
2023-05-12T07:53:58.654Z,29.25
2023-05-12T07:56:29.422Z,28.88
2023-05-12T07:58:56.309Z,30.20
2023-05-12T08:01:26.928Z,29.63
2023-05-12T08:04:00.839Z,32.15
2023-05-12T08:06:28.328Z,31.13
2023-05-12T08:09:03.403Z,31.52
2023-05-12T08:11:33.195Z,29.67
2023-05-12T08:14:00.806Z,27.40
2023-05-12T08:16:34.425Z,25.30
2023-05-12T08:19:01.671Z,22.90
2023-05-12T08:21:29.089Z,21.42
2023-05-12T08:23:56.181Z,19.02
2023-05-12T08:26:23.023Z,20.42
2023-05-12T08:28:50.088Z,18.20
2023-05-12T08:31:17.015Z,18.48
2023-05-12T08:33:43.873Z,17.23
2023-05-12T08:36:11.467Z,14.50
2023-05-12T08:38:38.507Z,13.40
2023-05-12T08:41:09.605Z,15.95
2023-05-12T08:43:44.848Z,15.00
2023-05-12T08:46:12.601Z,13.27
2023-05-12T08:48:40.542Z,13.85
2023-05-12T08:51:13.066Z,14.60
2023-05-12T08:53:41.543Z,13.15
2023-05-12T08:58:42.430Z,15.70
2023-05-12T09:01:11.501Z,15.85
2023-05-12T09:03:42.288Z,16.20
2023-05-12T09:06:16.163Z,14.70
2023-05-12T09:08:43.921Z,12.98
2023-05-12T09:11:13.789Z,15.13
2023-05-12T09:13:50.341Z,12.43
2023-05-12T09:16:19.231Z,10.25
2023-05-12T09:18:53.550Z,10.70
2023-05-12T09:21:21.318Z,11.70
2023-05-12T09:24:05.993Z,12.27
2023-05-12T09:26:44.797Z,9.68
2023-05-12T09:29:20.782Z,11.85
2023-05-12T09:31:59.691Z,11.05
2023-05-12T09:34:28.984Z,8.50
2023-05-12T09:36:57.129Z,9.00
2023-05-12T09:39:26.812Z,12.00
2023-05-12T09:41:56.630Z,8.02
2023-05-12T09:44:24.170Z,7.00
2023-05-12T09:46:51.960Z,6.15
2023-05-12T09:49:20.729Z,5.68
2023-05-12T09:51:51.848Z,4.78
2023-05-12T09:54:38.531Z,4.88
2023-05-12T09:57:06.125Z,5.70
2023-05-12T09:59:35.412Z,6.55
2023-05-12T10:02:03.064Z,7.10
2023-05-12T10:04:32.715Z,5.20
2023-05-12T10:07:01.508Z,5.45
2023-05-12T10:09:32.001Z,5.65
2023-05-12T10:11:59.222Z,10.15
2023-05-12T10:14:27.937Z,10.00
2023-05-12T10:16:56.075Z,9.43
2023-05-12T10:19:23.818Z,6.97
2023-05-12T10:21:50.969Z,6.88
2023-05-12T10:24:18.017Z,7.43
2023-05-12T10:26:45.282Z,7.53
2023-05-12T10:29:12.574Z,8.25
2023-05-12T10:31:40.200Z,7.28
2023-05-12T10:34:16.484Z,7.18
2023-05-12T10:36:49.303Z,5.72
2023-05-12T10:39:16.705Z,7.65
2023-05-12T10:41:43.847Z,9.00
2023-05-12T10:44:11.019Z,6.78
2023-05-12T10:46:37.906Z,5.68
2023-05-12T10:49:12.946Z,3.92
2023-05-12T10:51:43.522Z,8.80
2023-05-12T10:54:11.814Z,4.30
2023-05-12T10:56:38.801Z,4.82
2023-05-12T10:59:10.337Z,3.47
2023-05-12T11:01:42.966Z,3.67
2023-05-12T11:04:16.000Z,4.63
2023-05-12T11:06:44.959Z,3.83
2023-05-12T11:09:13.370Z,5.13
2023-05-12T11:11:45.642Z,6.10
2023-05-12T11:14:12.998Z,8.40
2023-05-12T11:16:45.653Z,5.00
2023-05-12T11:19:14.049Z,4.00
2023-05-12T11:21:45.295Z,6.30
2023-05-12T11:24:13.271Z,15.40
2023-05-12T11:26:55.455Z,7.68
2023-05-12T11:29:22.368Z,7.95
2023-05-12T11:31:52.776Z,3.33
2023-05-12T11:34:24.534Z,8.40
2023-05-12T11:36:52.331Z,8.80
2023-05-12T11:39:21.030Z,5.13
2023-05-12T11:41:48.345Z,5.57
2023-05-12T11:44:16.470Z,4.30
2023-05-12T11:46:56.068Z,5.72
2023-05-12T11:49:23.282Z,4.03
2023-05-12T11:51:57.315Z,4.45
2023-05-12T11:54:25.050Z,4.32
2023-05-12T11:56:53.300Z,3.85
2023-05-12T11:59:32.340Z,7.15
2023-05-12T12:02:03.055Z,8.98
2023-05-12T12:04:34.263Z,3.75
2023-05-12T12:07:01.559Z,3.78
2023-05-12T12:09:43.599Z,3.78
2023-05-12T12:12:11.678Z,7.50
2023-05-12T12:14:38.818Z,5.10
2023-05-12T12:17:05.751Z,4.93
2023-05-12T12:19:32.664Z,5.93
2023-05-12T12:21:59.900Z,3.08
2023-05-12T12:24:28.736Z,3.80
2023-05-12T12:26:55.914Z,7.97
2023-05-12T12:29:24.788Z,6.13
2023-05-12T12:31:51.995Z,3.47
2023-05-12T12:34:19.394Z,8.07
2023-05-12T12:36:48.055Z,4.28
2023-05-12T12:39:16.741Z,5.88
2023-05-12T12:41:48.113Z,3.83
2023-05-12T12:44:15.264Z,2.90
2023-05-12T12:46:50.870Z,3.45
2023-05-12T12:49:18.877Z,2.70
2023-05-12T12:51:47.234Z,7.30
2023-05-12T12:54:15.125Z,6.82
2023-05-12T12:56:43.269Z,4.93
2023-05-12T12:59:10.266Z,3.88
2023-05-12T13:01:37.465Z,3.05
2023-05-12T13:04:04.984Z,3.30
2023-05-12T13:06:31.716Z,6.13
2023-05-12T13:08:58.535Z,3.97
2023-05-12T13:11:29.319Z,5.95
2023-05-12T13:13:56.106Z,4.55
2023-05-12T13:16:23.280Z,6.90
2023-05-12T13:18:50.416Z,4.45
2023-05-12T13:21:18.749Z,3.92
2023-05-12T13:23:45.792Z,3.95
2023-05-12T13:26:14.798Z,7.78
2023-05-12T13:28:41.517Z,7.72
2023-05-12T13:31:12.762Z,3.42
2023-05-12T13:33:39.755Z,6.38
2023-05-12T13:36:13.486Z,3.20
2023-05-12T13:38:40.674Z,2.97
2023-05-12T13:41:11.714Z,3.97
2023-05-12T13:43:38.878Z,4.82
2023-05-12T13:46:06.346Z,4.80
2023-05-12T13:48:33.218Z,3.13
2023-05-12T13:51:00.017Z,2.95
2023-05-12T13:53:27.024Z,4.93
2023-05-12T13:55:53.938Z,7.28
2023-05-12T13:58:20.770Z,3.42
2023-05-12T14:00:48.031Z,11.95
2023-05-12T14:03:14.875Z,3.65
2023-05-12T14:05:42.640Z,3.40
2023-05-12T14:08:09.655Z,6.50
2023-05-12T14:10:36.579Z,4.68
2023-05-12T14:13:03.571Z,3.00
2023-05-12T14:15:47.188Z,2.60
2023-05-12T14:18:15.923Z,3.78
2023-05-12T14:20:43.191Z,4.40
2023-05-12T14:23:09.977Z,6.03
2023-05-12T14:25:36.767Z,3.53
2023-05-12T14:28:03.781Z,3.55
2023-05-12T14:30:31.034Z,3.25
2023-05-12T14:32:58.115Z,3.83
2023-05-12T14:35:27.546Z,3.60
2023-05-12T14:37:54.973Z,8.52
2023-05-12T14:40:21.996Z,5.93
2023-05-12T14:42:49.035Z,3.67
2023-05-12T14:45:15.878Z,2.50
2023-05-12T14:47:43.763Z,4.00
2023-05-12T14:50:11.059Z,3.60
2023-05-12T14:52:40.880Z,3.13
2023-05-12T14:55:11.852Z,5.20
2023-05-12T14:57:39.655Z,3.00
2023-05-12T15:00:13.627Z,5.78
2023-05-12T15:02:42.132Z,7.55
2023-05-12T15:05:09.898Z,3.20
2023-05-12T15:07:36.726Z,3.40
2023-05-12T15:10:04.462Z,2.97
2023-05-12T15:12:31.784Z,3.72
2023-05-12T15:15:01.365Z,3.75
2023-05-12T15:17:28.523Z,4.45
2023-05-12T15:19:55.980Z,4.15
2023-05-12T15:22:22.916Z,4.25
2023-05-12T15:24:49.760Z,4.03
2023-05-12T15:27:18.871Z,3.88
2023-05-12T15:29:45.691Z,6.35
2023-05-12T15:32:14.162Z,4.20
2023-05-12T15:34:41.333Z,4.35
2023-05-12T15:37:08.185Z,7.57
2023-05-12T15:39:35.433Z,5.28
2023-05-12T15:42:02.307Z,5.53
2023-05-12T15:44:29.161Z,10.05
2023-05-12T15:46:56.855Z,3.30
2023-05-12T15:49:24.287Z,5.18
2023-05-12T15:51:51.094Z,5.13
2023-05-12T15:54:18.572Z,4.65
2023-05-12T15:56:46.464Z,5.78
2023-05-12T15:59:13.440Z,10.95
2023-05-12T16:01:41.813Z,6.85
2023-05-12T16:04:18.575Z,5.65
2023-05-12T16:06:46.005Z,5.10
2023-05-12T16:09:13.721Z,6.13
2023-05-12T16:11:46.377Z,4.90
2023-05-12T16:14:13.995Z,7.32
2023-05-12T16:16:48.848Z,5.50
2023-05-12T16:19:17.054Z,6.80
2023-05-12T16:21:47.048Z,5.07
2023-05-12T16:24:14.077Z,6.43
2023-05-12T16:26:43.151Z,6.50
2023-05-12T16:29:10.583Z,6.22
2023-05-12T16:31:37.906Z,5.30
2023-05-12T16:34:05.671Z,5.95
2023-05-12T16:36:32.688Z,6.78
2023-05-12T16:38:59.772Z,6.53
2023-05-12T16:41:30.895Z,6.32
2023-05-12T16:43:58.312Z,5.97
2023-05-12T16:46:25.997Z,4.43
2023-05-12T16:48:53.704Z,7.95
2023-05-12T16:51:21.130Z,5.80
2023-05-12T16:53:47.884Z,8.43
2023-05-12T16:56:15.114Z,9.90
2023-05-12T16:58:42.544Z,6.13
2023-05-12T17:01:09.942Z,7.28
2023-05-12T17:03:37.006Z,4.50
2023-05-12T17:06:04.121Z,6.72
2023-05-12T17:08:31.518Z,8.73
2023-05-12T17:10:58.643Z,10.13
2023-05-12T17:13:25.623Z,8.90
2023-05-12T17:15:53.012Z,9.30
2023-05-12T17:18:19.783Z,7.90
2023-05-12T17:20:46.690Z,8.55
2023-05-12T17:23:13.550Z,8.45
2023-05-12T17:25:40.601Z,11.38
2023-05-12T17:28:07.583Z,8.32
2023-05-12T17:30:34.589Z,9.05
2023-05-12T17:33:01.798Z,12.30
2023-05-12T17:35:28.986Z,10.10
2023-05-12T17:37:56.125Z,12.27
2023-05-12T17:40:23.351Z,10.43
2023-05-12T17:42:50.431Z,8.02
2023-05-12T17:45:18.272Z,9.43
2023-05-12T17:47:46.328Z,8.48
2023-05-12T17:50:16.742Z,9.77
2023-05-12T17:52:45.171Z,6.90
2023-05-12T17:55:12.436Z,6.93
2023-05-12T17:57:39.281Z,8.57
2023-05-12T18:00:10.489Z,9.18
2023-05-12T18:02:45.006Z,8.27
2023-05-12T18:05:12.463Z,9.27
2023-05-12T18:07:39.412Z,8.63
2023-05-12T18:10:07.373Z,8.48
2023-05-12T18:12:34.348Z,8.32
2023-05-12T18:15:01.655Z,6.93
2023-05-12T18:17:29.149Z,8.23
2023-05-12T18:19:56.067Z,7.90
2023-05-12T18:22:23.133Z,7.78
2023-05-12T18:24:50.892Z,9.05
2023-05-12T18:27:18.145Z,11.82
2023-05-12T18:29:45.132Z,10.23
2023-05-12T18:32:12.189Z,7.70
2023-05-12T18:34:39.278Z,9.30
2023-05-12T18:37:06.215Z,10.10
2023-05-12T18:39:36.215Z,9.27
2023-05-12T18:42:03.587Z,9.10
2023-05-12T18:44:30.847Z,11.25
2023-05-12T18:46:59.038Z,8.95
2023-05-12T18:49:25.850Z,11.63
2023-05-12T18:51:52.913Z,9.07
2023-05-12T18:54:19.894Z,10.75
2023-05-12T18:56:47.582Z,13.35
2023-05-12T18:59:14.563Z,8.73
2023-05-12T19:01:43.261Z,12.45
2023-05-12T19:04:11.682Z,12.55
2023-05-12T19:06:38.944Z,10.43
2023-05-12T19:09:06.475Z,14.68
2023-05-12T19:11:33.419Z,9.77
2023-05-12T19:14:01.107Z,13.45
2023-05-12T19:16:51.874Z,12.30
2023-05-12T19:19:22.378Z,14.15
2023-05-12T19:21:49.346Z,15.05
2023-05-12T19:24:16.571Z,13.90
2023-05-12T19:26:43.792Z,14.13
2023-05-12T19:29:12.136Z,14.38
2023-05-12T19:31:39.022Z,15.63
2023-05-12T19:34:16.469Z,15.10
2023-05-12T19:36:43.947Z,13.10
2023-05-12T19:39:11.176Z,13.13
2023-05-12T19:41:49.108Z,15.85
2023-05-12T19:44:16.110Z,12.05
2023-05-12T19:46:55.911Z,12.00
2023-05-12T19:49:23.895Z,13.68
2023-05-12T19:51:51.891Z,15.88
2023-05-12T19:54:18.805Z,14.98
2023-05-12T19:56:45.880Z,13.18
2023-05-12T19:59:13.000Z,13.93
2023-05-12T20:01:42.656Z,16.02
2023-05-12T20:04:11.330Z,12.68
2023-05-12T20:06:38.322Z,11.00
2023-05-12T20:09:07.917Z,15.35
2023-05-12T20:11:34.784Z,12.40
2023-05-12T20:14:01.695Z,15.63
2023-05-12T20:16:38.390Z,14.68
2023-05-12T20:19:05.956Z,17.85
2023-05-12T20:21:33.888Z,15.43
2023-05-12T20:24:04.004Z,13.48
2023-05-12T20:26:35.321Z,15.95
2023-05-12T20:29:02.425Z,15.38
2023-05-12T20:34:20.871Z,18.52
2023-05-12T20:36:47.879Z,19.50
2023-05-12T20:39:15.366Z,14.55
2023-05-12T20:41:48.895Z,18.83
2023-05-12T20:44:19.635Z,17.42
2023-05-12T20:46:56.324Z,15.43
2023-05-12T20:49:23.489Z,17.52
2023-05-12T20:51:50.334Z,16.52
2023-05-12T20:54:17.420Z,15.75
2023-05-12T20:56:44.473Z,20.88
2023-05-12T20:59:11.405Z,17.10
2023-05-12T21:01:39.633Z,18.92
2023-05-12T21:04:07.975Z,25.52
2023-05-12T21:06:35.874Z,17.63
2023-05-12T21:09:03.251Z,19.63
2023-05-12T21:11:30.388Z,19.23
2023-05-12T21:14:01.508Z,19.30
2023-05-12T21:16:31.666Z,20.55
2023-05-12T21:19:00.102Z,19.33
2023-05-12T21:21:29.797Z,25.23
2023-05-12T21:23:56.935Z,17.90
2023-05-12T21:26:23.895Z,21.17
2023-05-12T21:28:50.996Z,21.08
2023-05-12T21:31:18.086Z,25.83
2023-05-12T21:33:45.105Z,21.50
2023-05-12T21:36:14.028Z,20.90
2023-05-12T21:38:54.947Z,22.45
2023-05-12T21:41:22.535Z,22.25
2023-05-12T21:43:49.401Z,19.10
2023-05-12T21:46:16.467Z,20.27
2023-05-12T21:48:43.350Z,25.77
2023-05-12T21:51:12.968Z,26.10
2023-05-12T21:53:41.312Z,22.88
2023-05-12T21:56:10.743Z,20.38
2023-05-12T21:58:47.584Z,23.05
2023-05-12T22:01:14.933Z,20.70
2023-05-12T22:03:41.908Z,21.30
2023-05-12T22:06:08.996Z,20.70
2023-05-12T22:08:35.816Z,19.17
2023-05-12T22:11:11.425Z,20.65
2023-05-12T22:13:47.871Z,25.95
2023-05-12T22:16:15.037Z,22.92
2023-05-12T22:18:43.733Z,19.48
2023-05-12T22:21:11.626Z,20.70
2023-05-12T22:23:49.787Z,26.77
2023-05-12T22:26:16.720Z,18.20
2023-05-12T22:28:46.439Z,18.35
2023-05-12T22:31:14.072Z,22.20
2023-05-12T22:33:41.292Z,16.08
2023-05-12T22:36:09.504Z,18.15
2023-05-12T22:38:36.993Z,15.02
2023-05-12T22:41:11.056Z,18.17
2023-05-12T22:43:47.526Z,16.17
2023-05-12T22:46:14.549Z,17.55
2023-05-12T22:48:42.027Z,17.85
2023-05-12T22:51:10.970Z,21.67
2023-05-12T22:53:41.557Z,18.42
2023-05-12T22:56:09.418Z,17.95
2023-05-12T22:58:36.717Z,20.77
2023-05-12T23:01:11.901Z,16.98
2023-05-12T23:03:39.211Z,20.77
2023-05-12T23:06:06.344Z,20.15
2023-05-12T23:08:33.215Z,14.80
2023-05-12T23:11:00.033Z,18.20
2023-05-12T23:13:26.910Z,17.05
2023-05-12T23:15:53.727Z,18.00
2023-05-12T23:18:21.156Z,20.42
2023-05-12T23:20:47.877Z,17.67
2023-05-12T23:23:14.775Z,14.52
2023-05-12T23:25:42.926Z,18.02
2023-05-12T23:28:10.574Z,18.13
2023-05-12T23:30:37.363Z,16.70
2023-05-12T23:33:04.483Z,15.18
2023-05-12T23:35:31.480Z,20.67
2023-05-12T23:37:58.237Z,14.85
2023-05-12T23:40:25.004Z,13.88
2023-05-12T23:42:51.781Z,15.07
2023-05-12T23:45:18.582Z,13.18
2023-05-12T23:47:45.624Z,14.27
2023-05-12T23:50:12.945Z,13.15
2023-05-12T23:52:39.793Z,15.27
2023-05-12T23:55:07.016Z,16.80
2023-05-12T23:57:33.820Z,13.75
